Time;durP1;ratioP1;P1;durP2;ratioP2;P2;SDS_P1;SDS_P2;PMS_P1;PMS_P2;Temp;Humidity;BMP_temperature;BMP_pressure;BME280_temperature;BME280_humidity;BME280_pressure;Samples;Min_cycle;Max_cycle;Signal;HPM_P1;HPM_P2
2023/08/10 00:00:37;;;;;;;7.35;4.22;;;;;;;15.38;79.39;101954.00;5017418;28;20024;-78
2023/08/10 00:03:02;;;;;;;4.18;3.70;;;;;;;15.41;79.17;101941.28;5017087;28;20036;-77
2023/08/10 00:05:31;;;;;;;7.25;4.40;;;;;;;15.43;79.36;101946.50;5034819;28;20391;-78
2023/08/10 00:07:57;;;;;;;6.10;3.85;;;;;;;15.45;79.37;101955.31;5016887;28;20021;-77
2023/08/10 00:10:22;;;;;;;8.82;4.10;;;;;;;15.34;79.47;101960.53;5034260;28;20017;-77
2023/08/10 00:12:50;;;;;;;8.38;4.20;;;;;;;15.43;80.17;101955.41;5034849;28;20033;-77
2023/08/10 00:15:15;;;;;;;8.43;4.63;;;;;;;15.29;80.52;101952.78;5034639;28;20021;-78
2023/08/10 00:17:41;;;;;;;9.23;4.50;;;;;;;15.32;80.19;101949.88;5034300;28;20087;-77
2023/08/10 00:20:10;;;;;;;8.75;4.32;;;;;;;15.47;80.52;101952.53;5016593;28;20087;-77
2023/08/10 00:22:38;;;;;;;4.68;3.80;;;;;;;15.33;81.34;101961.50;5034530;28;20538;-78
2023/08/10 00:25:05;;;;;;;7.65;3.78;;;;;;;15.41;81.12;101949.31;5015957;28;20539;-77
2023/08/10 00:27:31;;;;;;;6.22;3.95;;;;;;;15.44;81.75;101953.59;5034377;28;20031;-77
2023/08/10 00:29:56;;;;;;;4.65;3.78;;;;;;;15.50;81.09;101953.22;5033990;28;20029;-77
2023/08/10 00:32:22;;;;;;;12.52;4.13;;;;;;;15.55;80.90;101959.09;5016197;28;20448;-77
2023/08/10 00:34:47;;;;;;;9.27;4.45;;;;;;;15.33;81.59;101950.78;5034066;28;20074;-77
2023/08/10 00:37:14;;;;;;;8.07;4.00;;;;;;;15.43;80.96;101954.56;5015201;28;20029;-78
2023/08/10 00:39:42;;;;;;;8.57;4.35;;;;;;;15.45;81.73;101958.00;5015936;28;20064;-77
2023/08/10 00:42:10;;;;;;;9.45;4.40;;;;;;;15.55;81.72;101963.63;5016652;28;20104;-77
2023/08/10 00:44:35;;;;;;;7.93;4.47;;;;;;;15.53;81.38;101957.47;5016403;28;20021;-77
2023/08/10 00:47:01;;;;;;;5.88;3.92;;;;;;;15.55;81.87;101952.88;5015964;28;20508;-77
2023/08/10 00:49:28;;;;;;;11.95;5.18;;;;;;;15.31;82.67;101940.13;5016203;28;20036;-77
2023/08/10 00:51:56;;;;;;;9.30;4.53;;;;;;;15.44;82.53;101964.31;5033578;28;20121;-77
2023/08/10 00:54:21;;;;;;;7.28;4.30;;;;;;;15.50;82.32;101950.53;5015757;28;20022;-77
2023/08/10 00:56:47;;;;;;;7.50;4.50;;;;;;;15.34;82.50;101944.44;5016261;28;20028;-77
2023/08/10 00:59:12;;;;;;;6.93;4.25;;;;;;;15.34;82.29;101952.47;5033816;28;20022;-77
2023/08/10 01:01:40;;;;;;;6.15;4.18;;;;;;;15.19;82.69;101943.63;5016096;28;20018;-78
2023/08/10 01:04:06;;;;;;;6.75;4.20;;;;;;;15.27;82.92;101948.50;5015924;28;20447;-78
2023/08/10 01:06:46;;;;;;;5.50;4.15;;;;;;;15.26;83.60;101957.47;5033680;28;20087;-78
2023/08/10 01:09:15;;;;;;;6.85;4.93;;;;;;;15.23;83.86;101958.53;5033239;28;20026;-77
2023/08/10 01:11:48;;;;;;;9.23;4.93;;;;;;;15.03;84.53;101959.84;5033576;28;20021;-77
2023/08/10 01:14:25;;;;;;;7.40;4.78;;;;;;;15.04;84.18;101942.78;5015782;28;20064;-77
2023/08/10 01:16:55;;;;;;;11.18;4.90;;;;;;;15.08;84.44;101962.22;5015594;28;20392;-78
2023/08/10 01:19:26;;;;;;;4.97;4.43;;;;;;;15.16;nan;101959.91;5033289;28;20033;-77
2023/08/10 01:22:22;;;;;;;6.15;4.82;;;;;;;15.25;84.04;101966.50;5033325;28;20030;-78
2023/08/10 01:25:04;;;;;;;9.20;5.35;;;;;;;15.13;84.47;101966.31;5014710;28;20487;-77
2023/08/10 01:27:31;;;;;;;7.80;5.43;;;;;;;15.08;84.11;101948.81;5015360;28;20049;-77
2023/08/10 01:29:58;;;;;;;6.75;5.40;;;;;;;15.12;84.10;101953.03;5032564;28;20105;-77
2023/08/10 01:32:28;;;;;;;6.03;4.95;;;;;;;15.08;84.01;101956.84;5015316;28;20439;-77
2023/08/10 01:34:54;;;;;;;6.45;4.93;;;;;;;15.08;83.93;101952.34;5015349;28;20499;-77
2023/08/10 01:37:20;;;;;;;10.07;4.90;;;;;;;15.03;83.89;101954.47;5033213;28;20029;-77
2023/08/10 01:39:48;;;;;;;9.23;5.38;;;;;;;14.95;84.55;101951.44;5014822;28;20078;-77
2023/08/10 01:42:13;;;;;;;6.82;5.18;;;;;;;14.94;84.61;101950.56;5015214;28;20018;-77
2023/08/10 01:44:39;;;;;;;7.47;4.65;;;;;;;14.87;84.64;101949.22;5014642;28;20472;-77
2023/08/10 01:47:12;;;;;;;10.95;5.68;;;;;;;14.73;85.69;101963.47;5032879;28;20022;-77
2023/08/10 01:49:40;;;;;;;7.70;5.43;;;;;;;14.82;85.47;101967.41;5032742;28;20021;-77
2023/08/10 01:52:11;;;;;;;11.77;5.43;;;;;;;14.82;85.53;101969.22;5032892;28;20041;-77
2023/08/10 01:54:39;;;;;;;10.07;5.40;;;;;;;14.73;85.63;101957.25;5014717;28;20040;-77
2023/08/10 01:57:05;;;;;;;8.02;5.70;;;;;;;14.64;86.51;101964.06;5032820;28;20429;-78
2023/08/10 01:59:31;;;;;;;6.75;4.97;;;;;;;14.42;86.48;101927.03;5032540;28;20032;-77
2023/08/10 02:01:56;;;;;;;6.40;5.03;;;;;;;14.63;85.73;101954.31;5015126;28;20134;-77
2023/08/10 02:04:24;;;;;;;9.70;5.10;;;;;;;14.58;86.04;101959.09;5032742;28;20374;-77
2023/08/10 02:06:53;;;;;;;7.68;5.85;;;;;;;14.59;86.05;101959.94;5014923;28;20036;-77
2023/08/10 02:09:18;;;;;;;7.13;5.07;;;;;;;14.55;86.16;101964.63;5032285;28;20079;-77
2023/08/10 02:11:44;;;;;;;6.95;5.05;;;;;;;14.40;86.21;101946.81;5032752;28;20033;-77
2023/08/10 02:14:09;;;;;;;5.55;4.93;;;;;;;14.49;86.21;101976.53;5014945;28;20022;-77
2023/08/10 02:16:35;;;;;;;7.07;5.93;;;;;;;14.45;86.00;101961.63;5033069;28;20444;-77
2023/08/10 02:19:03;;;;;;;8.20;5.93;;;;;;;14.35;86.94;101971.16;5032381;28;20112;-78
2023/08/10 02:21:31;;;;;;;8.63;5.75;;;;;;;14.34;87.82;101966.78;5034809;28;20022;-77
2023/08/10 02:23:56;;;;;;;7.72;5.63;;;;;;;14.31;87.54;101983.03;5032932;28;20067;-77
2023/08/10 02:26:22;;;;;;;9.18;5.95;;;;;;;14.34;87.36;101976.63;5033425;28;20025;-77
2023/08/10 02:28:47;;;;;;;6.28;5.68;;;;;;;14.20;87.57;101962.25;5032992;28;20504;-77
2023/08/10 02:31:16;;;;;;;13.88;6.18;;;;;;;14.30;87.42;101975.97;5015300;28;20033;-77
2023/08/10 02:33:41;;;;;;;6.55;5.95;;;;;;;14.31;87.13;101981.22;5032757;28;20025;-77
2023/08/10 02:36:07;;;;;;;8.77;5.50;;;;;;;14.26;87.63;101972.59;5032359;28;20104;-77
2023/08/10 02:38:35;;;;;;;10.88;6.13;;;;;;;14.21;87.26;101964.00;5014155;28;20030;-77
2023/08/10 02:41:00;;;;;;;9.48;6.30;;;;;;;14.16;87.73;101973.25;5014437;28;20068;-77
2023/08/10 02:43:26;;;;;;;7.82;5.85;;;;;;;14.25;87.49;101978.06;5014334;28;20111;-77
2023/08/10 02:45:54;;;;;;;9.68;5.72;;;;;;;14.18;87.46;101974.91;5014498;28;20040;-78
2023/08/10 02:48:22;;;;;;;9.32;6.32;;;;;;;14.13;87.48;101981.47;5014151;28;20025;-78
2023/08/10 02:50:48;;;;;;;8.45;6.43;;;;;;;13.82;87.63;101936.03;5014017;28;20454;-77
2023/08/10 02:53:15;;;;;;;9.50;5.72;;;;;;;14.09;87.62;101970.09;5031971;28;20025;-77
2023/08/10 02:55:46;;;;;;;10.55;6.50;;;;;;;14.06;87.73;101981.84;5031641;28;20029;-77
2023/08/10 02:58:12;;;;;;;6.85;6.10;;;;;;;14.04;87.98;101981.06;5031807;28;20049;-78
2023/08/10 03:00:37;;;;;;;9.20;5.85;;;;;;;14.00;88.06;101984.00;5017340;28;20079;-77
2023/08/10 03:03:04;;;;;;;7.25;5.90;;;;;;;13.99;88.16;101979.59;5036093;28;20025;-77
2023/08/10 03:05:29;;;;;;;9.50;5.90;;;;;;;13.93;88.18;101982.66;5035930;28;20096;-78
2023/08/10 03:07:55;;;;;;;8.55;6.57;;;;;;;13.82;88.18;101986.81;5018310;28;20120;-78
2023/08/10 03:10:20;;;;;;;9.52;6.45;;;;;;;13.84;87.87;101978.69;5035312;28;20049;-77
2023/08/10 03:12:45;;;;;;;8.30;5.95;;;;;;;13.70;88.09;101966.13;5017801;28;20028;-77
2023/08/10 03:15:11;;;;;;;8.32;6.35;;;;;;;13.69;88.55;101959.06;5018000;28;20496;-78
2023/08/10 03:17:38;;;;;;;8.90;6.60;;;;;;;13.64;88.75;101975.38;5018365;28;20473;-77
2023/08/10 03:20:12;;;;;;;7.68;6.32;;;;;;;13.74;88.91;101985.56;5017769;28;20059;-77
2023/08/10 03:22:38;;;;;;;9.27;6.40;;;;;;;13.68;89.00;101984.09;5018129;28;20045;-77
2023/08/10 03:25:04;;;;;;;8.88;6.60;;;;;;;13.70;89.12;101978.63;5035188;28;20037;-77
2023/08/10 03:27:29;;;;;;;8.93;6.25;;;;;;;13.73;89.55;101997.19;5017827;28;20033;-77
2023/08/10 03:29:55;;;;;;;8.40;6.20;;;;;;;13.47;89.78;101964.81;5035360;28;20021;-77
2023/08/10 03:32:20;;;;;;;8.23;7.15;;;;;;;13.71;89.87;101994.59;5017665;28;20030;-77
2023/08/10 03:34:48;;;;;;;7.13;6.50;;;;;;;13.73;89.46;101975.78;5017629;28;20032;-77
2023/08/10 03:37:14;;;;;;;8.95;6.40;;;;;;;13.70;89.81;101975.97;5035375;28;20048;-77
2023/08/10 03:39:42;;;;;;;8.23;6.30;;;;;;;13.66;89.74;101985.97;5017256;28;20121;-77
2023/08/10 03:42:07;;;;;;;7.57;6.60;;;;;;;13.73;89.80;101991.81;5017589;28;20021;-77
2023/08/10 03:44:33;;;;;;;7.65;6.78;;;;;;;13.63;89.96;101979.00;5017579;28;20078;-77
2023/08/10 03:47:00;;;;;;;8.35;6.88;;;;;;;13.61;90.08;101983.56;5035120;28;20056;-77
2023/08/10 03:49:26;;;;;;;8.13;7.32;;;;;;;13.54;90.05;101978.69;5017210;28;20017;-77
2023/08/10 03:51:51;;;;;;;7.40;6.70;;;;;;;13.66;89.45;101979.78;5034896;28;20061;-77
2023/08/10 03:54:17;;;;;;;8.32;7.35;;;;;;;13.66;89.60;101983.31;5016956;28;20071;-77
2023/08/10 03:56:43;;;;;;;7.25;6.65;;;;;;;13.54;90.27;101984.03;5034657;28;20021;-77
2023/08/10 03:59:10;;;;;;;9.90;6.78;;;;;;;13.50;90.20;101985.13;5016526;28;20029;-77
2023/08/10 04:01:38;;;;;;;10.68;6.78;;;;;;;13.46;90.03;101976.44;5034898;28;20032;-77
2023/08/10 04:04:04;;;;;;;7.82;6.80;;;;;;;13.57;90.04;101991.88;5017131;28;20483;-77
2023/08/10 04:06:29;;;;;;;9.32;6.85;;;;;;;13.49;90.06;101992.28;5017224;28;20021;-77
2023/08/10 04:08:55;;;;;;;7.35;6.45;;;;;;;13.47;90.30;101994.22;5016547;28;20476;-77
2023/08/10 04:11:20;;;;;;;6.47;5.95;;;;;;;13.45;90.00;101989.91;5015357;28;20481;-77
2023/08/10 04:13:46;;;;;;;10.25;6.20;;;;;;;13.50;89.78;102002.06;5016965;28;20388;-77
2023/08/10 04:16:14;;;;;;;8.23;6.18;;;;;;;13.43;90.29;102005.16;5016872;28;20499;-77
2023/08/10 04:18:40;;;;;;;7.60;6.80;;;;;;;13.48;90.33;102006.63;5016624;28;20116;-77
2023/08/10 04:21:06;;;;;;;8.57;4.75;;;;;;;13.58;89.50;101996.25;5016429;28;20104;-77
2023/08/10 04:23:32;;;;;;;6.93;5.85;;;;;;;13.44;90.67;102005.03;5015950;28;20022;-77
2023/08/10 04:25:57;;;;;;;10.77;6.70;;;;;;;13.45;91.00;101995.25;5016117;28;20029;-78
2023/08/10 04:28:23;;;;;;;8.73;7.00;;;;;;;13.47;91.11;102009.34;5034101;28;20057;-77
2023/08/10 04:30:51;;;;;;;9.90;7.43;;;;;;;13.42;91.34;101995.41;5033776;28;20068;-77
2023/08/10 04:33:18;;;;;;;10.40;7.63;;;;;;;13.47;91.08;102010.25;5016202;28;20026;-77
2023/08/10 04:35:45;;;;;;;10.45;6.88;;;;;;;13.39;91.51;102009.81;5016337;28;20275;-77
2023/08/10 04:38:11;;;;;;;13.70;6.75;;;;;;;13.46;91.17;102018.34;5016122;28;20025;-77
2023/08/10 04:40:36;;;;;;;12.70;7.40;;;;;;;13.37;91.71;101998.34;5015715;28;20052;-77
2023/08/10 04:43:02;;;;;;;10.00;4.10;;;;;;;13.60;90.96;102016.59;5016066;28;20064;-77
2023/08/10 04:45:34;;;;;;;12.65;6.78;;;;;;;13.27;92.59;102027.38;5015862;28;20033;-76
2023/08/10 04:48:00;;;;;;;15.32;7.18;;;;;;;13.38;92.38;102021.44;5033724;28;20346;-77
2023/08/10 04:50:28;;;;;;;9.43;6.95;;;;;;;13.34;92.51;102018.06;5015656;28;20029;-77
2023/08/10 04:52:54;;;;;;;16.23;7.47;;;;;;;13.43;92.60;102016.69;5015689;28;20030;-77
2023/08/10 04:55:19;;;;;;;12.95;7.70;;;;;;;13.48;92.57;102030.66;5015225;28;20051;-77
2023/08/10 04:57:47;;;;;;;7.70;6.97;;;;;;;13.45;93.21;102028.16;5015711;28;20399;-77
2023/08/10 05:00:17;;;;;;;10.07;7.15;;;;;;;13.50;93.29;102010.06;5033422;28;20056;-77
2023/08/10 05:02:42;;;;;;;;;;;;;;;13.77;91.48;102029.00;5016196;28;20481;-77
2023/08/10 05:05:10;;;;;;;10.45;7.30;;;;;;;13.64;93.96;102030.66;5015673;28;19959;-77
2023/08/10 05:07:37;;;;;;;13.10;7.43;;;;;;;13.67;94.65;102027.78;5015722;28;20498;-77
2023/08/10 05:10:05;;;;;;;8.70;7.00;;;;;;;13.74;94.77;102022.97;5015092;28;20017;-77
2023/08/10 05:12:31;;;;;;;12.93;10.23;;;;;;;13.88;94.84;102024.84;5015683;28;20464;-77
2023/08/10 05:14:56;;;;;;;13.95;9.85;;;;;;;13.88;95.02;102022.16;5015709;28;20021;-77
2023/08/10 05:17:22;;;;;;;15.75;11.95;;;;;;;13.93;94.96;102022.75;5015739;28;20026;-77
2023/08/10 05:19:50;;;;;;;19.05;8.52;;;;;;;14.04;94.28;102014.97;5033246;28;20143;-77
2023/08/10 05:22:19;;;;;;;17.52;12.20;;;;;;;13.97;95.05;102027.88;5032698;28;20022;-77
2023/08/10 05:24:44;;;;;;;13.38;12.05;;;;;;;14.00;95.13;102032.16;5015091;28;20033;-77
2023/08/10 05:27:10;;;;;;;13.85;12.40;;;;;;;13.86;95.42;102012.44;5015691;28;20022;-77
2023/08/10 05:29:36;;;;;;;12.60;11.40;;;;;;;14.05;95.31;102030.94;5015625;28;20033;-77
2023/08/10 05:32:06;;;;;;;12.73;11.43;;;;;;;14.01;96.02;102025.88;5015308;28;20496;-77
2023/08/10 05:34:32;;;;;;;13.35;10.38;;;;;;;14.06;95.85;102021.97;5033074;28;20099;-77
2023/08/10 05:36:58;;;;;;;12.93;10.85;;;;;;;14.07;96.25;102021.00;5032997;28;20108;-77
2023/08/10 05:39:23;;;;;;;18.92;11.75;;;;;;;14.11;96.99;102024.34;5014628;28;20033;-77
2023/08/10 05:41:49;;;;;;;17.40;11.80;;;;;;;14.03;96.98;102008.78;5032974;28;20487;-77
2023/08/10 05:44:14;;;;;;;14.80;12.52;;;;;;;14.14;96.88;102026.84;5015167;28;20036;-77
2023/08/10 05:46:40;;;;;;;14.50;12.98;;;;;;;14.11;97.11;102020.81;5033165;28;20133;-77
2023/08/10 05:49:06;;;;;;;14.48;12.98;;;;;;;14.13;97.55;102010.91;5015031;28;20017;-77
2023/08/10 05:51:31;;;;;;;15.98;13.32;;;;;;;14.20;97.57;102022.94;5014797;28;20038;-77
2023/08/10 05:53:57;;;;;;;13.93;11.50;;;;;;;14.14;97.45;102008.13;5014595;28;20030;-77
2023/08/10 05:56:22;;;;;;;18.85;13.13;;;;;;;14.16;98.49;102018.75;5015061;28;20029;-77
2023/08/10 05:58:47;;;;;;;14.07;12.60;;;;;;;14.19;98.09;102016.75;5015082;28;20431;-77
2023/08/10 06:01:13;;;;;;;14.63;11.55;;;;;;;14.30;98.09;102014.28;5014848;28;20461;-77
2023/08/10 06:03:39;;;;;;;13.80;11.05;;;;;;;14.32;97.64;102022.22;5014983;28;20061;-77
2023/08/10 06:06:06;;;;;;;17.42;11.68;;;;;;;14.38;98.28;102027.19;5032492;28;20026;-77
2023/08/10 06:08:33;;;;;;;12.55;10.57;;;;;;;14.38;97.85;102013.81;5032130;28;20108;-77
2023/08/10 06:11:00;;;;;;;12.93;9.43;;;;;;;14.60;97.04;102028.63;5014676;28;20031;-77
2023/08/10 06:13:25;;;;;;;12.15;9.50;;;;;;;14.69;95.03;102028.91;5032461;28;20035;-76
2023/08/10 06:15:51;;;;;;;13.55;9.48;;;;;;;14.64;94.81;102000.69;5014968;28;20112;-77
2023/08/10 06:18:16;;;;;;;13.50;9.90;;;;;;;14.77;94.36;102007.88;5014861;28;20112;-77
2023/08/10 06:20:47;;;;;;;11.32;9.63;;;;;;;14.96;94.72;102017.44;5032368;28;20087;-77
2023/08/10 06:23:15;;;;;;;12.98;9.32;;;;;;;15.03;97.28;102018.78;5032416;28;20540;-77
2023/08/10 06:25:43;;;;;;;20.63;16.52;;;;;;;15.06;94.19;102013.22;5032223;28;20052;-77
2023/08/10 06:28:11;;;;;;;25.75;16.55;;;;;;;14.90;94.45;102005.28;5015127;28;20033;-77
2023/08/10 06:30:41;;;;;;;20.95;14.95;;;;;;;14.93;96.06;102005.09;5032645;28;20025;-77
2023/08/10 06:33:07;;;;;;;14.95;13.40;;;;;;;15.21;96.31;102022.13;5033648;28;20033;-77
2023/08/10 06:35:35;;;;;;;17.30;13.93;;;;;;;15.33;96.27;102026.69;5032602;28;20109;-77
2023/08/10 06:38:04;;;;;;;12.75;10.43;;;;;;;15.49;93.89;102031.91;5033758;28;20483;-77
2023/08/10 06:40:33;;;;;;;14.35;10.60;;;;;;;15.61;94.89;102019.53;5015107;28;20018;-77
2023/08/10 06:42:58;;;;;;;13.45;9.82;;;;;;;15.61;92.05;102003.44;5015497;28;20116;-77
2023/08/10 06:45:26;;;;;;;12.23;8.93;;;;;;;15.82;91.74;102025.31;5014964;28;20087;-77
2023/08/10 06:47:52;;;;;;;14.00;8.52;;;;;;;15.86;91.29;102029.53;5032120;28;20025;-78
2023/08/10 06:50:24;;;;;;;15.05;8.13;;;;;;;15.99;89.63;102017.00;5010153;28;20050;-77
2023/08/10 06:52:49;;;;;;;12.93;7.47;;;;;;;15.96;86.58;101995.75;5012263;28;20568;-78
2023/08/10 06:55:17;;;;;;;11.30;6.85;;;;;;;16.22;85.38;102020.81;5011915;28;20105;-78
2023/08/10 06:57:44;;;;;;;11.23;6.10;;;;;;;16.43;85.76;102018.50;5011157;28;20021;-77
2023/08/10 07:00:13;;;;;;;9.80;5.93;;;;;;;16.47;86.20;102025.38;5010986;28;20099;-77
2023/08/10 07:02:39;;;;;;;10.23;7.43;;;;;;;16.65;84.29;102022.34;5011196;28;20112;-77
2023/08/10 07:05:05;;;;;;;9.70;6.18;;;;;;;16.72;87.05;102012.91;4994210;28;20117;-78
2023/08/10 07:07:31;;;;;;;7.15;4.97;;;;;;;16.79;83.08;102019.59;5012096;28;20032;-78
2023/08/10 07:09:56;;;;;;;11.55;5.65;;;;;;;16.92;80.54;102023.16;5010346;28;20384;-77
2023/08/10 07:12:24;;;;;;;9.27;5.38;;;;;;;16.92;82.69;102009.72;5010593;28;20448;-77
2023/08/10 07:14:49;;;;;;;8.25;4.43;;;;;;;17.11;80.75;102017.31;5011948;28;20024;-77
2023/08/10 07:17:15;;;;;;;6.60;4.28;;;;;;;17.27;77.11;102009.00;5011987;28;20101;-77
2023/08/10 07:19:43;;;;;;;6.65;4.35;;;;;;;17.24;79.18;101983.19;5011688;28;20473;-77
2023/08/10 07:22:08;;;;;;;5.93;4.28;;;;;;;17.52;78.24;102005.38;5010917;28;20048;-77
2023/08/10 07:24:36;;;;;;;6.55;3.92;;;;;;;17.53;72.79;102008.91;5011578;28;20030;-78
2023/08/10 07:27:05;;;;;;;7.90;3.50;;;;;;;17.76;73.25;102024.19;4994441;28;20045;-77
2023/08/10 07:29:30;;;;;;;7.90;3.65;;;;;;;17.86;73.91;102021.72;5010499;28;20244;-77
2023/08/10 07:32:00;;;;;;;10.63;3.65;;;;;;;17.74;74.56;102026.16;5010368;28;20032;-77
2023/08/10 07:34:27;;;;;;;4.82;3.42;;;;;;;17.93;65.34;102018.44;5011613;28;20030;-77
2023/08/10 07:36:54;;;;;;;4.25;2.88;;;;;;;18.02;63.68;102013.34;5012097;28;20092;-77
2023/08/10 07:39:19;;;;;;;5.78;2.63;;;;;;;18.10;62.27;102005.53;5010110;28;20034;-77
2023/08/10 07:41:47;;;;;;;4.70;2.78;;;;;;;18.19;59.96;102015.59;5010453;28;20532;-77
2023/08/10 07:44:13;;;;;;;4.05;2.38;;;;;;;18.28;59.59;102022.13;5011679;28;20022;-77
2023/08/10 07:46:38;;;;;;;3.55;2.22;;;;;;;18.44;62.98;102017.25;5013389;28;20037;-78
2023/08/10 07:49:05;;;;;;;4.72;2.50;;;;;;;18.48;57.44;102024.13;5017016;28;20423;-78
2023/08/10 07:51:31;;;;;;;5.22;2.47;;;;;;;18.69;57.76;102018.06;5017011;28;20469;-77
2023/08/10 07:53:57;;;;;;;6.10;2.60;;;;;;;18.81;59.44;102026.03;5034565;28;20025;-77
2023/08/10 07:56:24;;;;;;;3.75;2.17;;;;;;;18.81;57.01;102031.44;5017509;28;20102;-77
2023/08/10 07:58:50;;;;;;;2.58;2.28;;;;;;;18.91;55.11;102023.47;5034875;28;20022;-78
2023/08/10 08:01:15;;;;;;;3.65;2.40;;;;;;;18.92;55.94;102027.03;5017099;28;20033;-77
2023/08/10 08:03:41;;;;;;;3.80;2.17;;;;;;;19.00;54.66;102036.25;5016669;28;20087;-77
2023/08/10 08:06:09;;;;;;;4.40;2.35;;;;;;;19.15;53.17;102020.66;5034957;28;20037;-77
2023/08/10 08:08:34;;;;;;;4.35;1.80;;;;;;;19.15;53.96;102014.38;5016551;28;20400;-78
2023/08/10 08:11:00;;;;;;;2.88;1.75;;;;;;;19.35;52.38;102016.31;5034894;28;20256;-77
2023/08/10 08:13:25;;;;;;;5.13;2.05;;;;;;;19.44;54.64;102025.50;5034449;28;20449;-78
2023/08/10 08:15:57;;;;;;;3.65;1.95;;;;;;;19.37;56.09;102018.91;5034662;28;20033;-78
2023/08/10 08:18:43;;;;;;;4.07;1.77;;;;;;;19.60;52.59;102025.13;5034255;28;20021;-78
2023/08/10 08:21:11;;;;;;;5.10;2.03;;;;;;;19.72;50.43;102033.09;5016820;28;20432;-78
2023/08/10 08:23:37;;;;;;;4.18;2.05;;;;;;;19.79;51.25;102028.03;5034207;28;20603;-77
2023/08/10 08:26:03;;;;;;;3.15;1.98;;;;;;;19.97;51.44;102022.94;5016726;28;20040;-78
2023/08/10 08:28:29;;;;;;;6.07;1.88;;;;;;;20.01;53.97;102021.69;5016365;28;20017;-77
2023/08/10 08:30:58;;;;;;;4.38;1.98;;;;;;;20.08;52.10;102028.28;5016433;28;20455;-77
2023/08/10 08:33:23;;;;;;;3.63;1.85;;;;;;;20.26;51.53;102036.66;5034118;28;20061;-78
2023/08/10 08:35:51;;;;;;;7.30;2.28;;;;;;;20.30;53.77;102030.03;5016403;28;20095;-78
2023/08/10 08:38:17;;;;;;;5.07;2.00;;;;;;;20.51;51.99;102046.25;5016377;28;20029;-78
2023/08/10 08:40:44;;;;;;;4.03;2.00;;;;;;;20.63;51.76;102041.66;5033591;28;20032;-78
2023/08/10 08:43:13;;;;;;;8.25;2.13;;;;;;;20.69;51.95;102038.41;5016458;28;20057;-78
2023/08/10 08:45:40;;;;;;;2.78;1.92;;;;;;;20.64;50.33;102032.53;5016154;28;20027;-77
2023/08/10 08:48:07;;;;;;;3.38;1.70;;;;;;;20.70;55.05;102036.56;5016254;28;20033;-78
2023/08/10 08:50:35;;;;;;;2.90;1.60;;;;;;;20.92;51.26;102033.69;5015940;28;20444;-78
2023/08/10 08:53:04;;;;;;;3.00;1.90;;;;;;;21.07;48.85;102042.31;5034026;28;20083;-78
2023/08/10 08:55:29;;;;;;;;;;;;;;;21.28;53.05;102034.13;5016057;28;20026;-77
2023/08/10 08:57:57;;;;;;;6.00;2.80;;;;;;;21.35;49.16;102039.84;5015493;28;19916;-78
2023/08/10 09:00:23;;;;;;;3.13;1.85;;;;;;;21.58;50.75;102029.66;5033610;28;20032;-78
2023/08/10 09:02:51;;;;;;;4.53;2.05;;;;;;;21.70;49.40;102026.69;5033868;28;20022;-77
2023/08/10 09:05:20;;;;;;;3.17;1.80;;;;;;;21.52;49.89;102014.84;5015969;28;20033;-78
2023/08/10 09:07:45;;;;;;;2.30;1.65;;;;;;;21.49;48.06;102007.84;5015753;28;20033;-78
2023/08/10 09:10:11;;;;;;;8.68;2.10;;;;;;;21.52;51.25;102015.69;5015597;28;20033;-78
2023/08/10 09:12:39;;;;;;;4.80;2.00;;;;;;;21.50;49.95;102011.41;5033787;28;20447;-78
2023/08/10 09:15:11;;;;;;;2.97;1.90;;;;;;;21.48;49.13;102011.56;5033360;28;20029;-78
2023/08/10 09:17:53;;;;;;;3.67;2.00;;;;;;;21.50;51.19;102006.00;5016042;28;20044;-78
2023/08/10 09:20:22;;;;;;;5.28;1.77;;;;;;;21.53;52.27;102009.28;5015437;28;20465;-78
2023/08/10 09:22:49;;;;;;;;;;;;;;;21.82;52.31;102010.31;5034007;28;20060;-78
2023/08/10 09:25:15;;;;;;;4.00;1.80;;;;;;;21.58;50.91;102008.00;5032944;28;19909;-78
2023/08/10 09:27:41;;;;;;;5.20;1.80;;;;;;;21.66;49.72;102016.28;5015658;28;20026;-78
2023/08/10 09:30:07;;;;;;;3.30;1.80;;;;;;;21.80;49.33;102013.16;5015597;28;20538;-78
2023/08/10 09:32:36;;;;;;;4.95;1.80;;;;;;;21.84;48.61;102013.72;5015791;28;20120;-78
2023/08/10 09:35:03;;;;;;;4.72;2.10;;;;;;;21.87;50.30;102013.44;5033318;28;20206;-78
2023/08/10 09:37:28;;;;;;;4.05;2.53;;;;;;;21.71;48.24;102001.34;5015882;28;20022;-78
2023/08/10 09:40:00;;;;;;;3.08;1.80;;;;;;;21.94;48.99;102010.03;5015162;28;20022;-78
2023/08/10 09:42:29;;;;;;;2.90;1.85;;;;;;;21.97;49.72;102006.16;5015683;28;20395;-78
2023/08/10 09:44:55;;;;;;;5.00;1.98;;;;;;;22.07;49.61;101995.34;5032954;28;20025;-78
2023/08/10 09:47:24;;;;;;;3.83;2.05;;;;;;;22.14;51.33;102008.16;5015617;28;20027;-79
2023/08/10 09:50:05;;;;;;;2.75;1.88;;;;;;;22.34;51.42;102011.75;5033206;28;20022;-78
2023/08/10 09:52:30;;;;;;;4.68;2.03;;;;;;;;;;5032648;28;20554;-77
2023/08/10 09:54:57;;;;;;;7.28;2.08;;;;;;;22.39;50.66;102005.88;5014938;28;20032;-78
2023/08/10 09:57:24;;;;;;;4.55;2.22;;;;;;;22.51;49.85;102009.28;5015441;28;20038;-78
2023/08/10 09:59:57;;;;;;;3.42;2.05;;;;;;;22.53;49.46;101980.16;5014886;28;20033;-78
2023/08/10 10:02:25;;;;;;;2.42;1.92;;;;;;;22.70;49.06;102016.50;5015283;28;20084;-78
2023/08/10 10:04:53;;;;;;;3.47;2.20;;;;;;;22.70;49.34;102014.66;5032937;28;20029;-78
2023/08/10 10:07:28;;;;;;;7.05;2.13;;;;;;;22.56;51.75;101990.69;5015049;28;20031;-79
2023/08/10 10:09:56;;;;;;;5.05;2.28;;;;;;;22.89;49.60;102003.72;5014676;28;20022;-78
2023/08/10 10:12:25;;;;;;;4.03;1.70;;;;;;;22.77;50.63;102002.22;5014689;28;20106;-78
2023/08/10 10:14:51;;;;;;;3.33;2.30;;;;;;;22.68;48.43;102000.41;5032587;28;20104;-78
2023/08/10 10:17:19;;;;;;;4.15;2.20;;;;;;;22.58;48.68;102002.25;5014976;28;20029;-78
2023/08/10 10:19:50;;;;;;;3.50;1.95;;;;;;;22.76;49.63;102022.19;5032678;28;20053;-78
2023/08/10 10:22:20;;;;;;;4.90;1.95;;;;;;;22.74;52.66;102020.66;5032964;28;20056;-78
2023/08/10 10:24:51;;;;;;;4.00;2.13;;;;;;;22.69;50.40;102031.94;5032414;28;20132;-78
2023/08/10 10:27:19;;;;;;;7.65;2.10;;;;;;;22.64;48.49;102021.50;5032684;28;20108;-78
2023/08/10 10:29:52;;;;;;;3.50;1.80;;;;;;;22.77;50.11;102023.06;5033039;28;20021;-78
2023/08/10 10:32:24;;;;;;;3.63;1.95;;;;;;;22.72;50.51;102025.34;5015083;28;20022;-78
2023/08/10 10:34:52;;;;;;;4.32;2.00;;;;;;;22.78;49.87;102014.75;5033091;28;20361;-78
2023/08/10 10:37:30;;;;;;;4.78;2.13;;;;;;;22.78;49.85;102011.19;5014960;28;20112;-78
2023/08/10 10:40:18;;;;;;;6.75;2.15;;;;;;;23.06;51.83;102006.66;5016601;28;20029;-78
2023/08/10 10:43:02;;;;;;;3.90;1.90;;;;;;;23.29;50.39;102009.84;5036987;28;20017;-78
2023/08/10 10:45:33;;;;;;;4.70;2.30;;;;;;;23.34;51.46;102005.66;5015854;28;20123;-78
2023/08/10 10:47:58;;;;;;;3.80;2.17;;;;;;;23.28;47.04;101997.28;5015803;28;20021;-78
2023/08/10 10:50:28;;;;;;;4.00;2.40;;;;;;;23.47;46.26;102007.16;5015601;28;20025;-78
2023/08/10 10:52:55;;;;;;;5.68;2.40;;;;;;;23.57;48.39;102013.41;5014332;28;20041;-78
2023/08/10 10:55:28;;;;;;;2.58;2.03;;;;;;;23.85;47.01;102000.63;5031653;28;20059;-78
2023/08/10 10:57:54;;;;;;;4.65;2.03;;;;;;;24.24;47.39;101986.69;5014372;28;20036;-78
2023/08/10 11:00:23;;;;;;;5.80;1.95;;;;;;;24.64;47.96;101994.28;5032119;28;20022;-78
2023/08/10 11:02:49;;;;;;;6.53;2.40;;;;;;;24.86;45.79;101992.03;5014375;28;20033;-78
2023/08/10 11:05:18;;;;;;;2.95;2.20;;;;;;;25.00;45.58;102001.44;5014104;28;20043;-78
2023/08/10 11:07:51;;;;;;;4.50;2.22;;;;;;;25.13;43.79;101999.13;5014300;28;20387;-78
2023/08/10 11:10:19;;;;;;;6.53;2.17;;;;;;;25.11;44.03;101993.81;5013977;28;20026;-78
2023/08/10 11:12:48;;;;;;;3.57;2.20;;;;;;;25.37;43.36;102003.84;5014356;28;20056;-78
2023/08/10 11:15:15;;;;;;;3.53;2.10;;;;;;;25.50;42.60;101989.72;5014144;28;20682;-78
2023/08/10 11:17:42;;;;;;;2.67;2.15;;;;;;;25.55;42.38;101980.03;5031883;28;20049;-78
2023/08/10 11:20:11;;;;;;;5.32;2.28;;;;;;;25.83;41.38;101986.06;5032455;28;20056;-78
2023/08/10 11:22:38;;;;;;;3.10;2.20;;;;;;;25.87;41.73;101975.66;5018302;28;20017;-78
2023/08/10 11:25:15;;;;;;;4.80;2.40;;;;;;;25.92;41.83;101976.03;5035034;28;20059;-78